sensor_id;sensor_type;location;lat;lon;timestamp;P1;durP1;ratioP1;P2;durP2;ratioP2
17959;SDS011;9105;53.552;9.980;2023-07-13T00:02:14;10.68;;;6.40;;
17959;SDS011;9105;53.552;9.980;2023-07-13T00:04:41;7.80;;;5.30;;
17959;SDS011;9105;53.552;9.980;2023-07-13T00:07:07;12.52;;;6.63;;
17959;SDS011;9105;53.552;9.980;2023-07-13T00:09:33;9.40;;;6.20;;
17959;SDS011;9105;53.552;9.980;2023-07-13T00:11:59;12.00;;;5.45;;
17959;SDS011;9105;53.552;9.980;2023-07-13T00:14:25;13.50;;;7.40;;
17959;SDS011;9105;53.552;9.980;2023-07-13T00:16:52;9.23;;;6.03;;
17959;SDS011;9105;53.552;9.980;2023-07-13T00:19:17;9.80;;;6.35;;
17959;SDS011;9105;53.552;9.980;2023-07-13T00:21:43;9.95;;;6.70;;
17959;SDS011;9105;53.552;9.980;2023-07-13T00:24:10;12.38;;;7.07;;
17959;SDS011;9105;53.552;9.980;2023-07-13T00:26:39;9.68;;;6.90;;
17959;SDS011;9105;53.552;9.980;2023-07-13T00:29:05;13.98;;;6.72;;
17959;SDS011;9105;53.552;9.980;2023-07-13T00:31:33;10.90;;;6.13;;
17959;SDS011;9105;53.552;9.980;2023-07-13T00:33:59;13.57;;;6.60;;
17959;SDS011;9105;53.552;9.980;2023-07-13T00:36:25;10.77;;;6.20;;
17959;SDS011;9105;53.552;9.980;2023-07-13T00:38:51;10.23;;;5.65;;
17959;SDS011;9105;53.552;9.980;2023-07-13T00:41:16;12.63;;;6.82;;
17959;SDS011;9105;53.552;9.980;2023-07-13T00:43:42;13.68;;;7.50;;
17959;SDS011;9105;53.552;9.980;2023-07-13T00:46:12;11.57;;;6.65;;
17959;SDS011;9105;53.552;9.980;2023-07-13T00:48:40;14.55;;;7.00;;
17959;SDS011;9105;53.552;9.980;2023-07-13T00:51:06;9.52;;;6.13;;
17959;SDS011;9105;53.552;9.980;2023-07-13T00:53:31;13.20;;;6.65;;
17959;SDS011;9105;53.552;9.980;2023-07-13T00:55:57;10.48;;;6.47;;
17959;SDS011;9105;53.552;9.980;2023-07-13T00:58:24;11.18;;;6.45;;
17959;SDS011;9105;53.552;9.980;2023-07-13T01:00:51;12.70;;;7.22;;
17959;SDS011;9105;53.552;9.980;2023-07-13T01:03:16;10.68;;;6.05;;
17959;SDS011;9105;53.552;9.980;2023-07-13T01:05:43;11.90;;;7.72;;
17959;SDS011;9105;53.552;9.980;2023-07-13T01:08:08;13.82;;;8.23;;
17959;SDS011;9105;53.552;9.980;2023-07-13T01:10:34;11.82;;;7.00;;
17959;SDS011;9105;53.552;9.980;2023-07-13T01:13:10;11.80;;;7.57;;
17959;SDS011;9105;53.552;9.980;2023-07-13T01:15:40;12.10;;;7.53;;
17959;SDS011;9105;53.552;9.980;2023-07-13T01:18:07;12.00;;;7.05;;
17959;SDS011;9105;53.552;9.980;2023-07-13T01:20:34;10.60;;;7.32;;
17959;SDS011;9105;53.552;9.980;2023-07-13T01:23:01;12.80;;;7.40;;
17959;SDS011;9105;53.552;9.980;2023-07-13T01:25:31;13.77;;;8.52;;
17959;SDS011;9105;53.552;9.980;2023-07-13T01:27:57;8.38;;;5.80;;
17959;SDS011;9105;53.552;9.980;2023-07-13T01:30:22;10.80;;;6.78;;
17959;SDS011;9105;53.552;9.980;2023-07-13T01:32:48;11.45;;;7.32;;
17959;SDS011;9105;53.552;9.980;2023-07-13T01:35:13;16.52;;;9.13;;
17959;SDS011;9105;53.552;9.980;2023-07-13T01:37:38;10.73;;;7.55;;
17959;SDS011;9105;53.552;9.980;2023-07-13T01:40:04;13.88;;;7.05;;
17959;SDS011;9105;53.552;9.980;2023-07-13T01:42:30;19.83;;;9.45;;
17959;SDS011;9105;53.552;9.980;2023-07-13T01:44:56;18.73;;;9.45;;
17959;SDS011;9105;53.552;9.980;2023-07-13T01:47:22;14.43;;;6.97;;
17959;SDS011;9105;53.552;9.980;2023-07-13T01:49:47;9.20;;;5.85;;
17959;SDS011;9105;53.552;9.980;2023-07-13T01:52:13;11.52;;;7.82;;
17959;SDS011;9105;53.552;9.980;2023-07-13T01:54:38;10.20;;;6.68;;
17959;SDS011;9105;53.552;9.980;2023-07-13T01:57:04;16.50;;;9.50;;
17959;SDS011;9105;53.552;9.980;2023-07-13T01:59:29;13.43;;;7.13;;
17959;SDS011;9105;53.552;9.980;2023-07-13T02:01:55;12.57;;;8.30;;
17959;SDS011;9105;53.552;9.980;2023-07-13T02:04:20;11.40;;;7.53;;
17959;SDS011;9105;53.552;9.980;2023-07-13T02:06:46;15.07;;;8.57;;
17959;SDS011;9105;53.552;9.980;2023-07-13T02:09:11;14.45;;;9.65;;
17959;SDS011;9105;53.552;9.980;2023-07-13T02:11:37;9.10;;;7.28;;
17959;SDS011;9105;53.552;9.980;2023-07-13T02:14:02;15.57;;;10.00;;
17959;SDS011;9105;53.552;9.980;2023-07-13T02:16:29;11.70;;;8.40;;
17959;SDS011;9105;53.552;9.980;2023-07-13T02:18:55;19.83;;;12.57;;
17959;SDS011;9105;53.552;9.980;2023-07-13T02:21:21;18.63;;;10.93;;
17959;SDS011;9105;53.552;9.980;2023-07-13T02:23:48;13.52;;;8.32;;
17959;SDS011;9105;53.552;9.980;2023-07-13T02:26:14;14.27;;;9.73;;
17959;SDS011;9105;53.552;9.980;2023-07-13T02:28:39;16.50;;;12.43;;
17959;SDS011;9105;53.552;9.980;2023-07-13T02:31:09;14.70;;;9.90;;
17959;SDS011;9105;53.552;9.980;2023-07-13T02:33:36;15.18;;;10.63;;
17959;SDS011;9105;53.552;9.980;2023-07-13T02:36:01;18.17;;;12.45;;
17959;SDS011;9105;53.552;9.980;2023-07-13T02:38:27;18.83;;;11.73;;
17959;SDS011;9105;53.552;9.980;2023-07-13T02:40:52;15.57;;;11.07;;
17959;SDS011;9105;53.552;9.980;2023-07-13T02:43:18;14.60;;;9.98;;
17959;SDS011;9105;53.552;9.980;2023-07-13T02:45:44;15.50;;;10.02;;
17959;SDS011;9105;53.552;9.980;2023-07-13T02:48:10;18.13;;;11.60;;
17959;SDS011;9105;53.552;9.980;2023-07-13T02:50:35;12.23;;;9.70;;
17959;SDS011;9105;53.552;9.980;2023-07-13T02:53:01;27.05;;;16.42;;
17959;SDS011;9105;53.552;9.980;2023-07-13T02:55:26;16.13;;;11.27;;
17959;SDS011;9105;53.552;9.980;2023-07-13T02:57:51;14.50;;;9.85;;
17959;SDS011;9105;53.552;9.980;2023-07-13T03:00:17;18.42;;;11.13;;
17959;SDS011;9105;53.552;9.980;2023-07-13T03:02:43;21.02;;;14.25;;
17959;SDS011;9105;53.552;9.980;2023-07-13T03:05:08;13.77;;;10.50;;
17959;SDS011;9105;53.552;9.980;2023-07-13T03:07:37;13.35;;;10.60;;
17959;SDS011;9105;53.552;9.980;2023-07-13T03:10:03;17.67;;;11.90;;
17959;SDS011;9105;53.552;9.980;2023-07-13T03:12:29;17.77;;;10.65;;
17959;SDS011;9105;53.552;9.980;2023-07-13T03:14:55;15.43;;;10.20;;
17959;SDS011;9105;53.552;9.980;2023-07-13T03:17:20;15.20;;;11.00;;
17959;SDS011;9105;53.552;9.980;2023-07-13T03:19:46;18.30;;;13.73;;
17959;SDS011;9105;53.552;9.980;2023-07-13T03:22:15;12.13;;;10.38;;
17959;SDS011;9105;53.552;9.980;2023-07-13T03:24:41;24.85;;;14.32;;
17959;SDS011;9105;53.552;9.980;2023-07-13T03:27:06;15.73;;;12.07;;
17959;SDS011;9105;53.552;9.980;2023-07-13T03:29:32;12.85;;;10.18;;
17959;SDS011;9105;53.552;9.980;2023-07-13T03:31:57;13.43;;;10.48;;
17959;SDS011;9105;53.552;9.980;2023-07-13T03:34:23;15.32;;;11.30;;
17959;SDS011;9105;53.552;9.980;2023-07-13T03:36:48;15.70;;;12.32;;
17959;SDS011;9105;53.552;9.980;2023-07-13T03:39:14;11.90;;;9.73;;
17959;SDS011;9105;53.552;9.980;2023-07-13T03:41:39;16.55;;;9.98;;
17959;SDS011;9105;53.552;9.980;2023-07-13T03:44:05;14.45;;;9.48;;
17959;SDS011;9105;53.552;9.980;2023-07-13T03:46:30;13.75;;;9.63;;
17959;SDS011;9105;53.552;9.980;2023-07-13T03:48:56;14.82;;;10.75;;
17959;SDS011;9105;53.552;9.980;2023-07-13T03:51:22;11.98;;;10.13;;
17959;SDS011;9105;53.552;9.980;2023-07-13T03:53:47;12.63;;;9.43;;
17959;SDS011;9105;53.552;9.980;2023-07-13T03:56:13;11.93;;;9.10;;
17959;SDS011;9105;53.552;9.980;2023-07-13T03:58:40;12.80;;;8.95;;
17959;SDS011;9105;53.552;9.980;2023-07-13T04:01:07;18.60;;;9.95;;
17959;SDS011;9105;53.552;9.980;2023-07-13T04:03:34;13.73;;;10.18;;
17959;SDS011;9105;53.552;9.980;2023-07-13T04:06:00;11.85;;;8.88;;
17959;SDS011;9105;53.552;9.980;2023-07-13T04:08:26;13.45;;;10.02;;
17959;SDS011;9105;53.552;9.980;2023-07-13T04:10:52;14.68;;;8.75;;
17959;SDS011;9105;53.552;9.980;2023-07-13T04:13:18;9.98;;;7.97;;
17959;SDS011;9105;53.552;9.980;2023-07-13T04:15:43;14.02;;;10.25;;
17959;SDS011;9105;53.552;9.980;2023-07-13T04:18:08;7.43;;;6.32;;
17959;SDS011;9105;53.552;9.980;2023-07-13T04:20:34;9.63;;;6.38;;
17959;SDS011;9105;53.552;9.980;2023-07-13T04:22:59;10.40;;;7.93;;
17959;SDS011;9105;53.552;9.980;2023-07-13T04:25:26;9.65;;;7.15;;
17959;SDS011;9105;53.552;9.980;2023-07-13T04:27:52;7.80;;;5.20;;
17959;SDS011;9105;53.552;9.980;2023-07-13T04:30:17;8.20;;;5.55;;
17959;SDS011;9105;53.552;9.980;2023-07-13T04:32:43;6.78;;;4.25;;
17959;SDS011;9105;53.552;9.980;2023-07-13T04:35:08;10.65;;;5.55;;
17959;SDS011;9105;53.552;9.980;2023-07-13T04:37:34;7.20;;;4.22;;
17959;SDS011;9105;53.552;9.980;2023-07-13T04:40:00;7.72;;;4.50;;
17959;SDS011;9105;53.552;9.980;2023-07-13T04:42:26;6.30;;;3.53;;
17959;SDS011;9105;53.552;9.980;2023-07-13T04:44:51;6.10;;;3.92;;
17959;SDS011;9105;53.552;9.980;2023-07-13T04:47:17;7.90;;;4.60;;
17959;SDS011;9105;53.552;9.980;2023-07-13T04:49:43;6.13;;;3.35;;
17959;SDS011;9105;53.552;9.980;2023-07-13T04:52:09;5.63;;;3.63;;
17959;SDS011;9105;53.552;9.980;2023-07-13T04:54:35;6.30;;;3.78;;
17959;SDS011;9105;53.552;9.980;2023-07-13T04:57:02;9.23;;;4.22;;
17959;SDS011;9105;53.552;9.980;2023-07-13T04:59:28;7.85;;;3.78;;
17959;SDS011;9105;53.552;9.980;2023-07-13T05:01:53;11.00;;;4.97;;
17959;SDS011;9105;53.552;9.980;2023-07-13T05:04:19;9.90;;;4.47;;
17959;SDS011;9105;53.552;9.980;2023-07-13T05:06:44;9.60;;;4.05;;
17959;SDS011;9105;53.552;9.980;2023-07-13T05:09:10;9.38;;;6.03;;
17959;SDS011;9105;53.552;9.980;2023-07-13T05:11:35;11.85;;;9.07;;
17959;SDS011;9105;53.552;9.980;2023-07-13T05:14:00;12.48;;;10.27;;
17959;SDS011;9105;53.552;9.980;2023-07-13T05:16:26;13.20;;;9.07;;
17959;SDS011;9105;53.552;9.980;2023-07-13T05:18:52;9.48;;;4.00;;
17959;SDS011;9105;53.552;9.980;2023-07-13T05:21:17;8.50;;;3.58;;
17959;SDS011;9105;53.552;9.980;2023-07-13T05:23:43;5.93;;;3.10;;
17959;SDS011;9105;53.552;9.980;2023-07-13T05:26:08;7.78;;;3.42;;
17959;SDS011;9105;53.552;9.980;2023-07-13T05:28:34;8.23;;;3.25;;
17959;SDS011;9105;53.552;9.980;2023-07-13T05:30:59;9.23;;;3.45;;
17959;SDS011;9105;53.552;9.980;2023-07-13T05:33:25;12.27;;;3.22;;
17959;SDS011;9105;53.552;9.980;2023-07-13T05:35:50;10.95;;;3.42;;
17959;SDS011;9105;53.552;9.980;2023-07-13T05:38:16;11.63;;;3.70;;
17959;SDS011;9105;53.552;9.980;2023-07-13T05:40:45;9.75;;;3.28;;
17959;SDS011;9105;53.552;9.980;2023-07-13T05:43:11;10.15;;;3.65;;
17959;SDS011;9105;53.552;9.980;2023-07-13T05:45:37;12.15;;;3.60;;
17959;SDS011;9105;53.552;9.980;2023-07-13T05:48:02;7.90;;;3.47;;
17959;SDS011;9105;53.552;9.980;2023-07-13T05:50:27;12.10;;;4.35;;
17959;SDS011;9105;53.552;9.980;2023-07-13T05:52:53;12.07;;;4.30;;
17959;SDS011;9105;53.552;9.980;2023-07-13T05:55:19;13.15;;;4.13;;
17959;SDS011;9105;53.552;9.980;2023-07-13T05:57:44;12.52;;;4.18;;
17959;SDS011;9105;53.552;9.980;2023-07-13T06:00:10;12.93;;;4.35;;
17959;SDS011;9105;53.552;9.980;2023-07-13T06:02:36;10.93;;;4.15;;
17959;SDS011;9105;53.552;9.980;2023-07-13T06:05:01;11.35;;;3.92;;
17959;SDS011;9105;53.552;9.980;2023-07-13T06:07:27;12.18;;;4.25;;
17959;SDS011;9105;53.552;9.980;2023-07-13T06:09:52;13.05;;;4.25;;
17959;SDS011;9105;53.552;9.980;2023-07-13T06:12:18;12.65;;;4.10;;
17959;SDS011;9105;53.552;9.980;2023-07-13T06:14:43;14.82;;;4.50;;
17959;SDS011;9105;53.552;9.980;2023-07-13T06:17:09;15.00;;;4.70;;
17959;SDS011;9105;53.552;9.980;2023-07-13T06:19:34;8.18;;;3.97;;
17959;SDS011;9105;53.552;9.980;2023-07-13T06:22:00;13.63;;;3.72;;
17959;SDS011;9105;53.552;9.980;2023-07-13T06:24:25;13.27;;;3.95;;
17959;SDS011;9105;53.552;9.980;2023-07-13T06:26:51;12.63;;;3.70;;
17959;SDS011;9105;53.552;9.980;2023-07-13T06:29:16;11.48;;;3.88;;
17959;SDS011;9105;53.552;9.980;2023-07-13T06:31:42;14.75;;;4.32;;
17959;SDS011;9105;53.552;9.980;2023-07-13T06:34:07;9.52;;;3.80;;
17959;SDS011;9105;53.552;9.980;2023-07-13T06:36:33;10.75;;;3.80;;
17959;SDS011;9105;53.552;9.980;2023-07-13T06:38:58;12.77;;;3.90;;
17959;SDS011;9105;53.552;9.980;2023-07-13T06:41:24;17.88;;;4.30;;
17959;SDS011;9105;53.552;9.980;2023-07-13T06:43:51;14.10;;;4.18;;
17959;SDS011;9105;53.552;9.980;2023-07-13T06:46:17;10.18;;;3.30;;
17959;SDS011;9105;53.552;9.980;2023-07-13T06:48:43;11.95;;;4.10;;
17959;SDS011;9105;53.552;9.980;2023-07-13T06:51:08;9.93;;;4.18;;
17959;SDS011;9105;53.552;9.980;2023-07-13T06:53:34;11.60;;;3.83;;
17959;SDS011;9105;53.552;9.980;2023-07-13T06:55:59;8.95;;;3.40;;
17959;SDS011;9105;53.552;9.980;2023-07-13T06:58:25;10.50;;;3.58;;
17959;SDS011;9105;53.552;9.980;2023-07-13T07:00:50;7.03;;;3.10;;
17959;SDS011;9105;53.552;9.980;2023-07-13T07:03:17;9.15;;;3.63;;
17959;SDS011;9105;53.552;9.980;2023-07-13T07:05:43;14.30;;;3.60;;
17959;SDS011;9105;53.552;9.980;2023-07-13T07:08:08;11.23;;;3.78;;
17959;SDS011;9105;53.552;9.980;2023-07-13T07:10:34;11.45;;;3.75;;
17959;SDS011;9105;53.552;9.980;2023-07-13T07:13:00;10.70;;;3.30;;
17959;SDS011;9105;53.552;9.980;2023-07-13T07:15:25;13.23;;;3.67;;
17959;SDS011;9105;53.552;9.980;2023-07-13T07:17:51;11.48;;;3.47;;
17959;SDS011;9105;53.552;9.980;2023-07-13T07:20:16;12.35;;;3.97;;
17959;SDS011;9105;53.552;9.980;2023-07-13T07:22:42;10.70;;;3.25;;
17959;SDS011;9105;53.552;9.980;2023-07-13T07:25:07;12.25;;;3.40;;
17959;SDS011;9105;53.552;9.980;2023-07-13T07:27:33;9.43;;;3.25;;
17959;SDS011;9105;53.552;9.980;2023-07-13T07:29:58;11.65;;;3.38;;
17959;SDS011;9105;53.552;9.980;2023-07-13T07:32:24;9.63;;;3.55;;
17959;SDS011;9105;53.552;9.980;2023-07-13T07:34:50;10.38;;;3.50;;
17959;SDS011;9105;53.552;9.980;2023-07-13T07:37:15;7.50;;;2.70;;
17959;SDS011;9105;53.552;9.980;2023-07-13T07:39:42;10.07;;;3.05;;
17959;SDS011;9105;53.552;9.980;2023-07-13T07:42:08;9.77;;;3.10;;
17959;SDS011;9105;53.552;9.980;2023-07-13T07:44:34;13.90;;;3.55;;
17959;SDS011;9105;53.552;9.980;2023-07-13T07:47:00;7.88;;;3.10;;
17959;SDS011;9105;53.552;9.980;2023-07-13T07:49:25;13.25;;;3.45;;
17959;SDS011;9105;53.552;9.980;2023-07-13T07:51:51;9.18;;;3.60;;
17959;SDS011;9105;53.552;9.980;2023-07-13T07:54:16;8.15;;;3.38;;
17959;SDS011;9105;53.552;9.980;2023-07-13T07:56:42;11.52;;;3.10;;
17959;SDS011;9105;53.552;9.980;2023-07-13T07:59:08;11.13;;;3.10;;
17959;SDS011;9105;53.552;9.980;2023-07-13T08:01:33;9.43;;;3.40;;
17959;SDS011;9105;53.552;9.980;2023-07-13T08:03:58;7.70;;;2.83;;
17959;SDS011;9105;53.552;9.980;2023-07-13T08:06:24;7.97;;;3.20;;
17959;SDS011;9105;53.552;9.980;2023-07-13T08:08:50;11.38;;;2.90;;
17959;SDS011;9105;53.552;9.980;2023-07-13T08:11:16;10.45;;;3.25;;
17959;SDS011;9105;53.552;9.980;2023-07-13T08:13:42;8.73;;;3.45;;
17959;SDS011;9105;53.552;9.980;2023-07-13T08:16:07;11.18;;;3.20;;
17959;SDS011;9105;53.552;9.980;2023-07-13T08:18:33;11.82;;;3.10;;
17959;SDS011;9105;53.552;9.980;2023-07-13T08:20:58;11.45;;;3.10;;
17959;SDS011;9105;53.552;9.980;2023-07-13T08:23:24;9.52;;;3.30;;
17959;SDS011;9105;53.552;9.980;2023-07-13T08:25:53;11.38;;;3.33;;
17959;SDS011;9105;53.552;9.980;2023-07-13T08:30:47;10.18;;;3.00;;
17959;SDS011;9105;53.552;9.980;2023-07-13T08:33:21;8.82;;;2.95;;
17959;SDS011;9105;53.552;9.980;2023-07-13T08:35:49;9.82;;;3.03;;
17959;SDS011;9105;53.552;9.980;2023-07-13T08:38:15;9.25;;;2.70;;
17959;SDS011;9105;53.552;9.980;2023-07-13T08:40:42;9.95;;;2.90;;
17959;SDS011;9105;53.552;9.980;2023-07-13T08:43:09;8.82;;;3.10;;
17959;SDS011;9105;53.552;9.980;2023-07-13T08:45:44;9.30;;;3.15;;
17959;SDS011;9105;53.552;9.980;2023-07-13T08:48:19;6.57;;;2.22;;
17959;SDS011;9105;53.552;9.980;2023-07-13T08:50:57;8.27;;;2.38;;
17959;SDS011;9105;53.552;9.980;2023-07-13T08:53:47;10.45;;;2.88;;
17959;SDS011;9105;53.552;9.980;2023-07-13T08:56:19;10.48;;;2.55;;
17959;SDS011;9105;53.552;9.980;2023-07-13T08:58:49;7.45;;;2.80;;
17959;SDS011;9105;53.552;9.980;2023-07-13T09:04:17;9.15;;;3.03;;
17959;SDS011;9105;53.552;9.980;2023-07-13T09:06:49;6.80;;;2.63;;
17959;SDS011;9105;53.552;9.980;2023-07-13T09:09:41;8.70;;;3.15;;
17959;SDS011;9105;53.552;9.980;2023-07-13T09:14:50;6.30;;;2.65;;
17959;SDS011;9105;53.552;9.980;2023-07-13T09:17:29;8.68;;;2.65;;
17959;SDS011;9105;53.552;9.980;2023-07-13T09:20:02;6.18;;;2.65;;
17959;SDS011;9105;53.552;9.980;2023-07-13T09:22:34;6.68;;;2.22;;
17959;SDS011;9105;53.552;9.980;2023-07-13T09:25:23;4.65;;;2.30;;
17959;SDS011;9105;53.552;9.980;2023-07-13T09:27:53;6.80;;;2.30;;
17959;SDS011;9105;53.552;9.980;2023-07-13T09:30:26;7.72;;;2.50;;
17959;SDS011;9105;53.552;9.980;2023-07-13T09:32:54;6.28;;;2.75;;
17959;SDS011;9105;53.552;9.980;2023-07-13T09:35:22;8.30;;;3.00;;
17959;SDS011;9105;53.552;9.980;2023-07-13T09:37:56;5.85;;;2.30;;
17959;SDS011;9105;53.552;9.980;2023-07-13T09:40:25;11.18;;;2.70;;
17959;SDS011;9105;53.552;9.980;2023-07-13T09:42:55;7.00;;;2.55;;
17959;SDS011;9105;53.552;9.980;2023-07-13T09:45:28;6.85;;;2.78;;
17959;SDS011;9105;53.552;9.980;2023-07-13T09:47:59;4.38;;;2.42;;
17959;SDS011;9105;53.552;9.980;2023-07-13T09:50:29;5.88;;;2.60;;
17959;SDS011;9105;53.552;9.980;2023-07-13T09:52:54;7.57;;;2.72;;
17959;SDS011;9105;53.552;9.980;2023-07-13T09:55:29;5.38;;;2.53;;
17959;SDS011;9105;53.552;9.980;2023-07-13T09:58:06;5.53;;;2.42;;
17959;SDS011;9105;53.552;9.980;2023-07-13T10:00:35;7.22;;;2.95;;
17959;SDS011;9105;53.552;9.980;2023-07-13T10:03:05;9.80;;;2.63;;
17959;SDS011;9105;53.552;9.980;2023-07-13T10:05:40;10.55;;;2.75;;
17959;SDS011;9105;53.552;9.980;2023-07-13T10:08:26;6.43;;;2.20;;
17959;SDS011;9105;53.552;9.980;2023-07-13T10:11:01;6.15;;;2.60;;
17959;SDS011;9105;53.552;9.980;2023-07-13T10:16:02;9.30;;;2.58;;
17959;SDS011;9105;53.552;9.980;2023-07-13T10:18:28;8.32;;;2.40;;
17959;SDS011;9105;53.552;9.980;2023-07-13T10:21:11;5.60;;;2.45;;
17959;SDS011;9105;53.552;9.980;2023-07-13T10:23:38;6.05;;;2.40;;
17959;SDS011;9105;53.552;9.980;2023-07-13T10:26:04;6.00;;;2.72;;
17959;SDS011;9105;53.552;9.980;2023-07-13T10:28:33;6.55;;;2.70;;
17959;SDS011;9105;53.552;9.980;2023-07-13T10:31:01;7.47;;;2.58;;
17959;SDS011;9105;53.552;9.980;2023-07-13T10:33:26;6.10;;;2.28;;
17959;SDS011;9105;53.552;9.980;2023-07-13T10:36:03;10.63;;;2.80;;
17959;SDS011;9105;53.552;9.980;2023-07-13T10:38:37;7.05;;;2.70;;
17959;SDS011;9105;53.552;9.980;2023-07-13T10:41:05;3.85;;;2.50;;
17959;SDS011;9105;53.552;9.980;2023-07-13T10:43:36;8.77;;;2.60;;
17959;SDS011;9105;53.552;9.980;2023-07-13T10:46:06;6.47;;;2.70;;
17959;SDS011;9105;53.552;9.980;2023-07-13T10:48:33;6.05;;;2.40;;
17959;SDS011;9105;53.552;9.980;2023-07-13T10:50:59;7.22;;;2.30;;
17959;SDS011;9105;53.552;9.980;2023-07-13T10:55:59;5.85;;;2.30;;
17959;SDS011;9105;53.552;9.980;2023-07-13T10:58:38;6.15;;;2.13;;
17959;SDS011;9105;53.552;9.980;2023-07-13T11:01:09;6.68;;;2.35;;
17959;SDS011;9105;53.552;9.980;2023-07-13T11:03:37;5.50;;;2.40;;
17959;SDS011;9105;53.552;9.980;2023-07-13T11:18:50;3.13;;;2.13;;
17959;SDS011;9105;53.552;9.980;2023-07-13T11:21:28;4.63;;;2.15;;
17959;SDS011;9105;53.552;9.980;2023-07-13T11:24:13;8.55;;;2.92;;
17959;SDS011;9105;53.552;9.980;2023-07-13T11:26:59;6.03;;;2.10;;
17959;SDS011;9105;53.552;9.980;2023-07-13T11:31:56;6.47;;;2.05;;
17959;SDS011;9105;53.552;9.980;2023-07-13T11:37:01;4.70;;;2.10;;
17959;SDS011;9105;53.552;9.980;2023-07-13T11:39:34;7.07;;;2.10;;
17959;SDS011;9105;53.552;9.980;2023-07-13T11:42:02;6.65;;;2.40;;
17959;SDS011;9105;53.552;9.980;2023-07-13T11:44:30;5.55;;;2.30;;
17959;SDS011;9105;53.552;9.980;2023-07-13T11:47:00;6.80;;;2.05;;
17959;SDS011;9105;53.552;9.980;2023-07-13T11:49:38;7.80;;;2.47;;
17959;SDS011;9105;53.552;9.980;2023-07-13T11:52:10;4.60;;;2.17;;
17959;SDS011;9105;53.552;9.980;2023-07-13T11:55:00;4.80;;;2.13;;
17959;SDS011;9105;53.552;9.980;2023-07-13T11:57:28;4.45;;;2.20;;
17959;SDS011;9105;53.552;9.980;2023-07-13T11:59:56;5.97;;;2.58;;
17959;SDS011;9105;53.552;9.980;2023-07-13T12:02:29;3.45;;;1.80;;
17959;SDS011;9105;53.552;9.980;2023-07-13T12:04:59;3.90;;;1.80;;
17959;SDS011;9105;53.552;9.980;2023-07-13T12:07:27;3.05;;;1.83;;
17959;SDS011;9105;53.552;9.980;2023-07-13T12:09:59;4.10;;;1.80;;
17959;SDS011;9105;53.552;9.980;2023-07-13T12:12:29;5.13;;;2.20;;
17959;SDS011;9105;53.552;9.980;2023-07-13T12:14:55;5.35;;;2.20;;
17959;SDS011;9105;53.552;9.980;2023-07-13T12:17:24;5.90;;;2.38;;
17959;SDS011;9105;53.552;9.980;2023-07-13T12:19:51;5.88;;;2.28;;
17959;SDS011;9105;53.552;9.980;2023-07-13T12:22:17;9.43;;;2.05;;
17959;SDS011;9105;53.552;9.980;2023-07-13T12:24:44;7.22;;;2.33;;
17959;SDS011;9105;53.552;9.980;2023-07-13T12:27:23;38.92;;;4.05;;
17959;SDS011;9105;53.552;9.980;2023-07-13T12:29:51;16.70;;;3.92;;
17959;SDS011;9105;53.552;9.980;2023-07-13T12:32:19;9.77;;;3.43;;
17959;SDS011;9105;53.552;9.980;2023-07-13T12:34:54;10.35;;;3.60;;
17959;SDS011;9105;53.552;9.980;2023-07-13T12:37:21;11.23;;;4.60;;
17959;SDS011;9105;53.552;9.980;2023-07-13T12:39:47;9.82;;;5.07;;
17959;SDS011;9105;53.552;9.980;2023-07-13T12:42:21;13.20;;;6.07;;
17959;SDS011;9105;53.552;9.980;2023-07-13T12:44:58;12.23;;;5.35;;
17959;SDS011;9105;53.552;9.980;2023-07-13T12:47:26;15.25;;;6.13;;
17959;SDS011;9105;53.552;9.980;2023-07-13T12:49:54;9.50;;;5.93;;
17959;SDS011;9105;53.552;9.980;2023-07-13T12:52:21;11.65;;;6.40;;
17959;SDS011;9105;53.552;9.980;2023-07-13T12:55:06;11.18;;;7.35;;
17959;SDS011;9105;53.552;9.980;2023-07-13T13:00:27;8.20;;;5.60;;
17959;SDS011;9105;53.552;9.980;2023-07-13T13:02:58;13.73;;;5.10;;
17959;SDS011;9105;53.552;9.980;2023-07-13T13:05:31;6.47;;;3.80;;
17959;SDS011;9105;53.552;9.980;2023-07-13T13:07:57;6.10;;;3.67;;
17959;SDS011;9105;53.552;9.980;2023-07-13T13:10:22;8.05;;;4.15;;
17959;SDS011;9105;53.552;9.980;2023-07-13T13:12:48;6.13;;;3.42;;
17959;SDS011;9105;53.552;9.980;2023-07-13T13:15:13;5.45;;;3.30;;
17959;SDS011;9105;53.552;9.980;2023-07-13T13:17:39;6.65;;;3.45;;
17959;SDS011;9105;53.552;9.980;2023-07-13T13:20:14;4.28;;;2.50;;
17959;SDS011;9105;53.552;9.980;2023-07-13T13:22:41;4.15;;;2.40;;
17959;SDS011;9105;53.552;9.980;2023-07-13T13:25:10;4.07;;;2.50;;
17959;SDS011;9105;53.552;9.980;2023-07-13T13:27:37;4.82;;;2.80;;
17959;SDS011;9105;53.552;9.980;2023-07-13T13:30:02;5.18;;;2.03;;
17959;SDS011;9105;53.552;9.980;2023-07-13T13:32:28;3.75;;;2.28;;
17959;SDS011;9105;53.552;9.980;2023-07-13T13:34:54;3.88;;;2.20;;
17959;SDS011;9105;53.552;9.980;2023-07-13T13:37:23;3.53;;;2.20;;
17959;SDS011;9105;53.552;9.980;2023-07-13T13:39:50;3.30;;;2.22;;
17959;SDS011;9105;53.552;9.980;2023-07-13T13:42:17;5.13;;;2.13;;
17959;SDS011;9105;53.552;9.980;2023-07-13T13:44:42;6.50;;;2.10;;
17959;SDS011;9105;53.552;9.980;2023-07-13T13:47:41;4.00;;;2.10;;
17959;SDS011;9105;53.552;9.980;2023-07-13T13:50:01;5.28;;;2.33;;
17959;SDS011;9105;53.552;9.980;2023-07-13T13:52:27;4.60;;;2.22;;
17959;SDS011;9105;53.552;9.980;2023-07-13T13:54:52;5.05;;;2.38;;
17959;SDS011;9105;53.552;9.980;2023-07-13T13:57:21;5.68;;;2.30;;
17959;SDS011;9105;53.552;9.980;2023-07-13T13:59:51;3.53;;;2.00;;
17959;SDS011;9105;53.552;9.980;2023-07-13T14:02:22;5.30;;;2.33;;
17959;SDS011;9105;53.552;9.980;2023-07-13T14:04:59;3.22;;;2.13;;
17959;SDS011;9105;53.552;9.980;2023-07-13T14:07:26;3.47;;;2.13;;
17959;SDS011;9105;53.552;9.980;2023-07-13T14:09:52;3.45;;;2.00;;
17959;SDS011;9105;53.552;9.980;2023-07-13T14:12:20;3.13;;;1.53;;
17959;SDS011;9105;53.552;9.980;2023-07-13T14:14:45;7.68;;;2.30;;
17959;SDS011;9105;53.552;9.980;2023-07-13T14:17:20;4.32;;;2.40;;
17959;SDS011;9105;53.552;9.980;2023-07-13T14:19:47;4.68;;;2.00;;
17959;SDS011;9105;53.552;9.980;2023-07-13T14:22:16;4.68;;;2.38;;
17959;SDS011;9105;53.552;9.980;2023-07-13T14:24:45;3.08;;;1.83;;
17959;SDS011;9105;53.552;9.980;2023-07-13T14:27:10;3.25;;;1.83;;
17959;SDS011;9105;53.552;9.980;2023-07-13T14:29:37;3.03;;;1.92;;
17959;SDS011;9105;53.552;9.980;2023-07-13T14:32:02;3.17;;;2.33;;
17959;SDS011;9105;53.552;9.980;2023-07-13T14:34:30;3.65;;;1.90;;
17959;SDS011;9105;53.552;9.980;2023-07-13T14:36:55;3.47;;;2.15;;
17959;SDS011;9105;53.552;9.980;2023-07-13T14:39:22;4.53;;;2.13;;
17959;SDS011;9105;53.552;9.980;2023-07-13T14:41:52;4.63;;;2.30;;
17959;SDS011;9105;53.552;9.980;2023-07-13T14:44:25;4.18;;;2.25;;
17959;SDS011;9105;53.552;9.980;2023-07-13T14:46:54;3.00;;;2.00;;
17959;SDS011;9105;53.552;9.980;2023-07-13T14:52:00;3.25;;;1.83;;
17959;SDS011;9105;53.552;9.980;2023-07-13T14:54:28;5.22;;;2.45;;
17959;SDS011;9105;53.552;9.980;2023-07-13T14:56:54;5.80;;;2.40;;
17959;SDS011;9105;53.552;9.980;2023-07-13T14:59:19;3.45;;;2.00;;
17959;SDS011;9105;53.552;9.980;2023-07-13T15:01:45;3.95;;;2.10;;
17959;SDS011;9105;53.552;9.980;2023-07-13T15:04:11;4.45;;;2.50;;
17959;SDS011;9105;53.552;9.980;2023-07-13T15:06:53;5.03;;;2.45;;
17959;SDS011;9105;53.552;9.980;2023-07-13T15:09:19;3.28;;;2.38;;
17959;SDS011;9105;53.552;9.980;2023-07-13T15:11:45;4.95;;;2.88;;
17959;SDS011;9105;53.552;9.980;2023-07-13T15:14:13;4.07;;;2.78;;
17959;SDS011;9105;53.552;9.980;2023-07-13T15:16:38;6.17;;;2.70;;
17959;SDS011;9105;53.552;9.980;2023-07-13T15:19:04;6.03;;;2.47;;
17959;SDS011;9105;53.552;9.980;2023-07-13T15:21:29;4.30;;;2.13;;
17959;SDS011;9105;53.552;9.980;2023-07-13T15:24:00;3.90;;;2.67;;
17959;SDS011;9105;53.552;9.980;2023-07-13T15:26:26;4.80;;;2.63;;
17959;SDS011;9105;53.552;9.980;2023-07-13T15:28:51;5.05;;;2.63;;
17959;SDS011;9105;53.552;9.980;2023-07-13T15:31:21;3.47;;;2.22;;
17959;SDS011;9105;53.552;9.980;2023-07-13T15:33:49;4.70;;;2.40;;